This is the latest recevied weather packets stored in our database for station/object NI4CE-10. If no packets are shown the sender has not sent any weather packets the latest 10 day(s).
| Time | Temp. | Humidity | Pressure | Rain* | Wind** | Luminosity | Snow |
|---|---|---|---|---|---|---|---|
| 1777494683 | 32.22° C | 100% | 1015.7 hPa | 0 mm | - | - | - |
| 1777494383 | 32.22° C | 100% | 1015.8 hPa | 0 mm | - | - | - |
| 1777494156 | 32.22° C | 100% | 1015.8 hPa | 0 mm | - | - | - |
| 1777494083 | 32.22° C | 100% | 1015.8 hPa | 0 mm | - | - | - |
| 1777493783 | 31.67° C | 100% | 1015.9 hPa | 0 mm | - | - | - |
| 1777493708 | 32.22° C | 100% | 1016 hPa | 0 mm | - | - | - |
| 1777493616 | 32.22° C | 100% | 1016 hPa | 0 mm | - | - | - |
| 1777493483 | 32.22° C | 100% | 1016 hPa | 0 mm | - | - | - |
| 1777493376 | 34.44° C | 100% | 1016.5 hPa | 0 mm | - | - | - |
| 1777493183 | 32.22° C | 100% | 1016 hPa | 0 mm | - | - | - |
| 1777492974 | 33.33° C | 100% | 1016.2 hPa | 0 mm | - | - | - |
| 1777492883 | 33.33° C | 100% | 1016.2 hPa | 0 mm | - | - | - |
| 1777492684 | 32.78° C | 100% | 1016.3 hPa | 0 mm | - | - | - |
| 1777492583 | 32.78° C | 100% | 1016.3 hPa | 0 mm | - | - | - |
| 1777492283 | 33.89° C | 100% | 1016.2 hPa | 0 mm | - | - | - |
| 1777492074 | 35° C | 100% | 1016.4 hPa | 0 mm | - | - | - |
| 1777491983 | 35° C | 100% | 1016.4 hPa | 0 mm | - | - | - |
| 1777491788 | 34.44° C | 100% | 1016.5 hPa | 0 mm | - | - | - |
| 1777491683 | 34.44° C | 100% | 1016.5 hPa | 0 mm | - | - | - |
| 1777491553 | 34.44° C | 100% | 1016.5 hPa | 0 mm | - | - | - |
| 1777491383 | 34.44° C | 100% | 1016.5 hPa | 0 mm | - | - | - |
| 1777491176 | 34.44° C | 100% | 1016.5 hPa | 0 mm | - | - | - |
| 1777491083 | 34.44° C | 100% | 1016.5 hPa | 0 mm | - | - | - |
| 1777490898 | 34.44° C | 100% | 1016.7 hPa | 0 mm | - | - | - |
| 1777490783 | 34.44° C | 100% | 1016.7 hPa | 0 mm | - | - | - |
* Rain latest hour (hover to see other rain measurements)
** Current wind speed in m/s (hover to see current wind gust speed)